DLH8PZ EDDG-EDDF
Flight info
| Callsign | DLH8PZ |
|---|---|
| Flight time | N/A |
| Altitude | 22000 |
| Route | DOMEG2Y DOMEG N853 ONUNE DCT LIPMI/N0404F210 T911 ROLIS ROLIS5D |
| Aircraft | A320/M-SDE3FGHIRWY/LB1 |
Departure
| Time | 2026-04-27 13:25 |
|---|---|
| Airport | Münster Osnabrück Airport (EDDG) |
Arrival
| Time | N/A |
|---|---|
| Airport | Frankfurt Main Airport (EDDF) |
| Time | Latitude | Longitude | Altitude | Speed | Heading |
|---|---|---|---|---|---|
| 2026-04-27 13:06 | 52.13177 | 7.69393 | 168 ft | 0 kts | 197° |
| 2026-04-27 13:21 | 52.13176 | 7.69388 | 168 ft | 1 kts | 230° |
| 2026-04-27 13:21 | 52.13179 | 7.69381 | 167 ft | 1 kts | 290° |
| 2026-04-27 13:21 | 52.13194 | 7.69368 | 167 ft | 5 kts | 327° |
| 2026-04-27 13:21 | 52.13246 | 7.69323 | 166 ft | 12 kts | 340° |
| 2026-04-27 13:22 | 52.13343 | 7.69268 | 165 ft | 18 kts | 342° |
| 2026-04-27 13:22 | 52.13426 | 7.69141 | 164 ft | 19 kts | 261° |
| 2026-04-27 13:22 | 52.13379 | 7.68909 | 166 ft | 24 kts | 251° |
| 2026-04-27 13:22 | 52.13323 | 7.68637 | 169 ft | 25 kts | 252° |
| 2026-04-27 13:23 | 52.13260 | 7.68343 | 169 ft | 30 kts | 251° |
| 2026-04-27 13:23 | 52.13188 | 7.68003 | 166 ft | 34 kts | 251° |
| 2026-04-27 13:23 | 52.13119 | 7.67674 | 161 ft | 33 kts | 251° |
| 2026-04-27 13:23 | 52.13046 | 7.67327 | 162 ft | 31 kts | 251° |
| 2026-04-27 13:24 | 52.13058 | 7.67102 | 164 ft | 20 kts | 309° |
| 2026-04-27 13:24 | 52.13175 | 7.67110 | 163 ft | 17 kts | 59° |
| 2026-04-27 13:24 | 52.13187 | 7.67166 | 162 ft | 1 kts | 71° |
| 2026-04-27 13:24 | 52.13219 | 7.67313 | 161 ft | 46 kts | 71° |
| 2026-04-27 13:25 | 52.13402 | 7.68174 | 168 ft | 113 kts | 70° |
| 2026-04-27 13:25 | 52.13729 | 7.69655 | 272 ft | 155 kts | 69° |
| 2026-04-27 13:25 | 52.14063 | 7.71322 | 939 ft | 154 kts | 69° |
| 2026-04-27 13:25 | 52.14407 | 7.72968 | 1641 ft | 154 kts | 68° |
| 2026-04-27 13:26 | 52.14788 | 7.74723 | 2022 ft | 177 kts | 68° |
| 2026-04-27 13:26 | 52.15230 | 7.76724 | 2357 ft | 199 kts | 69° |
| 2026-04-27 13:26 | 52.15730 | 7.78963 | 2751 ft | 223 kts | 69° |
| 2026-04-27 13:26 | 52.16125 | 7.81529 | 3179 ft | 247 kts | 90° |
| 2026-04-27 13:27 | 52.15548 | 7.84204 | 3827 ft | 260 kts | 129° |
| 2026-04-27 13:27 | 52.14113 | 7.86034 | 4675 ft | 266 kts | 152° |
| 2026-04-27 13:27 | 52.12377 | 7.87108 | 5534 ft | 271 kts | 173° |
| 2026-04-27 13:27 | 52.10508 | 7.86747 | 6382 ft | 275 kts | 201° |
| 2026-04-27 13:28 | 52.08786 | 7.85369 | 7230 ft | 277 kts | 209° |
| 2026-04-27 13:28 | 52.07046 | 7.83991 | 8107 ft | 279 kts | 206° |
| 2026-04-27 13:28 | 52.05262 | 7.82710 | 8972 ft | 281 kts | 204° |
| 2026-04-27 13:28 | 52.03455 | 7.81465 | 9838 ft | 284 kts | 205° |
| 2026-04-27 13:29 | 52.01619 | 7.80213 | 10567 ft | 291 kts | 204° |
| 2026-04-27 13:29 | 51.99681 | 7.78876 | 10815 ft | 314 kts | 205° |
| 2026-04-27 13:29 | 51.97604 | 7.77426 | 11021 ft | 337 kts | 205° |
| 2026-04-27 13:29 | 51.95390 | 7.75867 | 11354 ft | 353 kts | 205° |
| 2026-04-27 13:30 | 51.93115 | 7.74260 | 11992 ft | 359 kts | 205° |
| 2026-04-27 13:30 | 51.90813 | 7.72638 | 12704 ft | 362 kts | 205° |
| 2026-04-27 13:30 | 51.88488 | 7.71000 | 13423 ft | 366 kts | 205° |
| 2026-04-27 13:30 | 51.86149 | 7.69352 | 14120 ft | 368 kts | 205° |
| 2026-04-27 13:31 | 51.83793 | 7.67694 | 14743 ft | 371 kts | 206° |
| 2026-04-27 13:31 | 51.81413 | 7.66019 | 15353 ft | 375 kts | 206° |
| 2026-04-27 13:31 | 51.79011 | 7.64332 | 15949 ft | 378 kts | 206° |
| 2026-04-27 13:31 | 51.76586 | 7.62635 | 16547 ft | 381 kts | 206° |
| 2026-04-27 13:32 | 51.74141 | 7.60929 | 17130 ft | 385 kts | 207° |
| 2026-04-27 13:32 | 51.71668 | 7.59208 | 17721 ft | 389 kts | 206° |
| 2026-04-27 13:32 | 51.69091 | 7.57752 | 18146 ft | 395 kts | 201° |
| 2026-04-27 13:32 | 51.66470 | 7.56428 | 18236 ft | 395 kts | 201° |
| 2026-04-27 13:33 | 51.63827 | 7.55104 | 18712 ft | 399 kts | 201° |
| 2026-04-27 13:33 | 51.61174 | 7.53778 | 19270 ft | 401 kts | 201° |
| 2026-04-27 13:33 | 51.58500 | 7.52442 | 19820 ft | 403 kts | 201° |
| 2026-04-27 13:33 | 51.55819 | 7.51101 | 20314 ft | 405 kts | 201° |
| 2026-04-27 13:34 | 51.54027 | 7.50206 | 20632 ft | 407 kts | 201° |
| 2026-04-27 13:34 | 51.51279 | 7.48837 | 21145 ft | 410 kts | 201° |
| 2026-04-27 13:34 | 51.48587 | 7.47493 | 21640 ft | 411 kts | 202° |
| 2026-04-27 13:34 | 51.45809 | 7.46103 | 22091 ft | 414 kts | 202° |
| 2026-04-27 13:35 | 51.43095 | 7.44745 | 22225 ft | 416 kts | 202° |
| 2026-04-27 13:35 | 51.40291 | 7.43339 | 22251 ft | 429 kts | 202° |
| 2026-04-27 13:35 | 51.37376 | 7.41881 | 22243 ft | 436 kts | 201° |
| 2026-04-27 13:35 | 51.34525 | 7.40387 | 22241 ft | 437 kts | 203° |
| 2026-04-27 13:36 | 51.31623 | 7.38729 | 22237 ft | 438 kts | 204° |
| 2026-04-27 13:36 | 51.28772 | 7.37018 | 22236 ft | 438 kts | 205° |
| 2026-04-27 13:36 | 51.25924 | 7.35274 | 22236 ft | 438 kts | 205° |
| 2026-04-27 13:36 | 51.23079 | 7.33538 | 22237 ft | 438 kts | 205° |
| 2026-04-27 13:37 | 51.20223 | 7.31816 | 22232 ft | 438 kts | 205° |
| 2026-04-27 13:37 | 51.17326 | 7.30313 | 22041 ft | 440 kts | 197° |
| 2026-04-27 13:37 | 51.14280 | 7.29679 | 21778 ft | 444 kts | 186° |
| 2026-04-27 13:37 | 51.11185 | 7.29993 | 21519 ft | 448 kts | 174° |
| 2026-04-27 13:38 | 51.08154 | 7.31235 | 21246 ft | 452 kts | 163° |
| 2026-04-27 13:38 | 51.05293 | 7.33342 | 20988 ft | 456 kts | 153° |
| 2026-04-27 13:38 | 51.02583 | 7.35961 | 20735 ft | 455 kts | 151° |
| 2026-04-27 13:38 | 50.99889 | 7.38579 | 20483 ft | 454 kts | 151° |
| 2026-04-27 13:39 | 50.97198 | 7.41192 | 20228 ft | 453 kts | 151° |
| 2026-04-27 13:39 | 50.94549 | 7.43769 | 19995 ft | 452 kts | 151° |
| 2026-04-27 13:39 | 50.91838 | 7.46402 | 19758 ft | 450 kts | 151° |
| 2026-04-27 13:39 | 50.89170 | 7.48987 | 19502 ft | 449 kts | 151° |
| 2026-04-27 13:40 | 50.86543 | 7.51522 | 19265 ft | 447 kts | 151° |
| 2026-04-27 13:40 | 50.83854 | 7.54113 | 19033 ft | 446 kts | 151° |
| 2026-04-27 13:40 | 50.81242 | 7.56628 | 18797 ft | 446 kts | 151° |
| 2026-04-27 13:40 | 50.78543 | 7.59162 | 18551 ft | 443 kts | 155° |
| 2026-04-27 13:41 | 50.75765 | 7.61165 | 18180 ft | 436 kts | 160° |
| 2026-04-27 13:41 | 50.73014 | 7.63006 | 17591 ft | 432 kts | 160° |
| 2026-04-27 13:41 | 50.70267 | 7.64835 | 17019 ft | 427 kts | 160° |
| 2026-04-27 13:41 | 50.67550 | 7.66638 | 16486 ft | 422 kts | 160° |
| 2026-04-27 13:42 | 50.64855 | 7.68425 | 15948 ft | 417 kts | 159° |
| 2026-04-27 13:42 | 50.62190 | 7.70187 | 15408 ft | 413 kts | 159° |
| 2026-04-27 13:42 | 50.59557 | 7.71923 | 14894 ft | 409 kts | 159° |
| 2026-04-27 13:42 | 50.56948 | 7.73644 | 14363 ft | 405 kts | 159° |
| 2026-04-27 13:43 | 50.54357 | 7.75352 | 13785 ft | 402 kts | 159° |
| 2026-04-27 13:43 | 50.51792 | 7.77046 | 13207 ft | 398 kts | 159° |
| 2026-04-27 13:43 | 50.49255 | 7.78721 | 12616 ft | 394 kts | 159° |
| 2026-04-27 13:43 | 50.46746 | 7.80378 | 12024 ft | 390 kts | 158° |
| 2026-04-27 13:44 | 50.44276 | 7.82104 | 11432 ft | 387 kts | 153° |
| 2026-04-27 13:44 | 50.42011 | 7.84396 | 11221 ft | 388 kts | 143° |
| 2026-04-27 13:44 | 50.39902 | 7.87033 | 11092 ft | 387 kts | 142° |
| 2026-04-27 13:44 | 50.37844 | 7.89588 | 10909 ft | 365 kts | 142° |
| 2026-04-27 13:45 | 50.35933 | 7.91951 | 10782 ft | 335 kts | 142° |
| 2026-04-27 13:45 | 50.34170 | 7.94128 | 10608 ft | 313 kts | 143° |
| 2026-04-27 13:45 | 50.32271 | 7.95908 | 10361 ft | 336 kts | 161° |
| 2026-04-27 13:45 | 50.29888 | 7.96667 | 10129 ft | 354 kts | 175° |
| 2026-04-27 13:46 | 50.27492 | 7.97059 | 9990 ft | 338 kts | 175° |
| 2026-04-27 13:46 | 50.25199 | 7.97390 | 9858 ft | 324 kts | 176° |
| 2026-04-27 13:46 | 50.22997 | 7.97693 | 9719 ft | 312 kts | 176° |
| 2026-04-27 13:46 | 50.20877 | 7.97983 | 9592 ft | 300 kts | 176° |
| 2026-04-27 13:47 | 50.18851 | 7.98266 | 9463 ft | 293 kts | 176° |
| 2026-04-27 13:47 | 50.16825 | 7.98556 | 9334 ft | 292 kts | 176° |
| 2026-04-27 13:47 | 50.14804 | 7.98848 | 9197 ft | 291 kts | 176° |
| 2026-04-27 13:47 | 50.12787 | 7.99136 | 9074 ft | 291 kts | 176° |
| 2026-04-27 13:48 | 50.10773 | 7.99421 | 8940 ft | 290 kts | 176° |
| 2026-04-27 13:48 | 50.08762 | 7.99711 | 8811 ft | 290 kts | 176° |
| 2026-04-27 13:48 | 50.06756 | 7.99953 | 8682 ft | 289 kts | 181° |
| 2026-04-27 13:48 | 50.04761 | 7.99733 | 8554 ft | 288 kts | 185° |
| 2026-04-27 13:49 | 50.02780 | 8.00129 | 8257 ft | 292 kts | 161° |
| 2026-04-27 13:49 | 50.00919 | 8.01420 | 7758 ft | 294 kts | 154° |
| 2026-04-27 13:49 | 49.99079 | 8.02840 | 7319 ft | 294 kts | 154° |
| 2026-04-27 13:49 | 49.97253 | 8.04254 | 6927 ft | 292 kts | 153° |
| 2026-04-27 13:50 | 49.95583 | 8.06005 | 6529 ft | 290 kts | 132° |
| 2026-04-27 13:50 | 49.94576 | 8.08650 | 6116 ft | 283 kts | 104° |
| 2026-04-27 13:50 | 49.94517 | 8.11570 | 5775 ft | 265 kts | 75° |
| 2026-04-27 13:50 | 49.95097 | 8.14193 | 5426 ft | 250 kts | 68° |
| 2026-04-27 13:51 | 49.95708 | 8.16645 | 5088 ft | 238 kts | 68° |
| 2026-04-27 13:51 | 49.96285 | 8.18994 | 4751 ft | 229 kts | 68° |
| 2026-04-27 13:51 | 49.96838 | 8.21264 | 4428 ft | 220 kts | 69° |
| 2026-04-27 13:51 | 49.97368 | 8.23447 | 4116 ft | 213 kts | 69° |
| 2026-04-27 13:52 | 49.97881 | 8.25560 | 3821 ft | 210 kts | 69° |
| 2026-04-27 13:52 | 49.98388 | 8.27652 | 3525 ft | 204 kts | 69° |
| 2026-04-27 13:52 | 49.98881 | 8.29688 | 3273 ft | 194 kts | 69° |
| 2026-04-27 13:52 | 49.99344 | 8.31604 | 2963 ft | 186 kts | 68° |
| 2026-04-27 13:53 | 50.00215 | 8.35208 | 2478 ft | 177 kts | 69° |
| 2026-04-27 13:53 | 50.00631 | 8.36933 | 2205 ft | 162 kts | 68° |
| 2026-04-27 13:53 | 50.01002 | 8.38472 | 1995 ft | 148 kts | 68° |
| 2026-04-27 13:54 | 50.01351 | 8.39916 | 1775 ft | 141 kts | 68° |
| 2026-04-27 13:54 | 50.01696 | 8.41350 | 1575 ft | 139 kts | 68° |
| 2026-04-27 13:54 | 50.02036 | 8.42758 | 1374 ft | 138 kts | 68° |
| 2026-04-27 13:54 | 50.02365 | 8.44176 | 1158 ft | 140 kts | 68° |
| 2026-04-27 13:55 | 50.02717 | 8.45586 | 957 ft | 139 kts | 64° |
| 2026-04-27 13:55 | 50.03079 | 8.46987 | 769 ft | 140 kts | 68° |
| 2026-04-27 13:55 | 50.03388 | 8.48428 | 571 ft | 140 kts | 69° |
| 2026-04-27 13:55 | 50.03737 | 8.49843 | 381 ft | 139 kts | 66° |
| 2026-04-27 13:56 | 50.04045 | 8.51128 | 352 ft | 112 kts | 69° |
| 2026-04-27 13:56 | 50.04257 | 8.52001 | 353 ft | 63 kts | 69° |